Time;durP1;ratioP1;P1;durP2;ratioP2;P2;SDS_P1;SDS_P2;PMS_P1;PMS_P2;Temp;Humidity;BMP_temperature;BMP_pressure;BME280_temperature;BME280_humidity;BME280_pressure;Samples;Min_cycle;Max_cycle;Signal;HPM_P1;HPM_P2
2021/11/17 02:33:12;;;;;;;0.20;0.10;;;10.90;99.90;;;;;;20445131;28;20564;-70
2021/11/17 02:43:34;;;;;;;0.20;0.10;;;10.70;99.90;;;;;;20640798;28;20199;-70
2021/11/17 02:53:54;;;;;;;0.20;0.10;;;10.40;99.90;;;;;;20640785;28;20231;-68
2021/11/17 03:04:23;;;;;;;0.20;0.10;;;10.20;99.90;;;;;;20638335;28;20232;-69
2021/11/17 03:14:46;;;;;;;0.20;0.03;;;10.20;99.90;;;;;;20567032;28;20232;-69
2021/11/17 03:25:05;;;;;;;0.20;0.10;;;10.20;99.90;;;;;;20593919;28;20196;-69
2021/11/17 03:35:25;;;;;;;0.20;0.10;;;10.50;99.90;;;;;;20636672;28;20258;-69
2021/11/17 03:45:50;;;;;;;0.20;0.10;;;10.80;99.90;;;;;;20650829;28;20207;-69
2021/11/17 03:56:13;;;;;;;0.20;0.10;;;10.40;99.90;;;;;;20638808;28;20235;-68
2021/11/17 04:06:37;;;;;;;0.20;0.10;;;10.10;99.90;;;;;;20601131;28;20235;-68
2021/11/17 04:16:54;;;;;;;0.20;0.10;;;10.90;99.90;;;;;;20637336;28;20223;-68
2021/11/17 04:27:15;;;;;;;0.20;0.00;;;11.00;99.90;;;;;;20651265;28;20294;-69
2021/11/17 04:37:41;;;;;;;0.20;0.10;;;10.80;99.90;;;;;;20667857;28;20585;-69
2021/11/17 04:48:02;;;;;;;0.20;0.10;;;10.80;99.90;;;;;;20667867;28;20198;-68
2021/11/17 04:58:22;;;;;;;0.20;0.10;;;10.70;99.90;;;;;;20666186;28;20263;-68
2021/11/17 05:08:35;;;;;;;0.20;0.10;;;10.40;99.90;;;;;;20661016;28;20696;-68
2021/11/17 05:18:48;;;;;;;0.20;0.10;;;10.20;99.90;;;;;;20585509;28;20659;-67
2021/11/17 05:29:24;;;;;;;0.20;0.10;;;10.00;99.90;;;;;;20567366;28;20295;-67
2021/11/17 05:39:45;;;;;;;0.20;0.20;;;9.90;99.90;;;;;;20649851;28;20234;-72
2021/11/17 05:50:04;;;;;;;1.27;1.17;;;10.00;99.90;;;;;;20573465;28;20299;-69
2021/11/17 06:00:42;;;;;;;0.20;0.10;;;9.80;99.90;;;;;;20580530;28;20266;-70
2021/11/17 06:10:50;;;;;;;0.20;0.10;;;9.70;99.90;;;;;;20607287;28;20214;-70
2021/11/17 06:20:54;;;;;;;0.20;0.20;;;9.50;99.90;;;;;;20657522;28;21034;-70
2021/11/17 06:31:01;;;;;;;0.20;0.10;;;9.50;99.90;;;;;;20653066;28;20284;-67
2021/11/17 06:41:05;;;;;;;0.20;0.10;;;9.70;99.90;;;;;;20577468;28;20283;-68
2021/11/17 06:51:10;;;;;;;0.20;0.10;;;10.00;99.90;;;;;;20558681;28;20290;-67
2021/11/17 07:01:15;;;;;;;0.20;0.10;;;10.30;99.90;;;;;;20604997;28;20266;-70
2021/11/17 07:11:20;;;;;;;0.20;0.10;;;10.50;99.90;;;;;;20649031;28;20226;-69
2021/11/17 07:21:23;;;;;;;0.20;0.10;;;10.70;99.90;;;;;;20653334;28;20695;-70
2021/11/17 07:31:34;;;;;;;1.50;1.40;;;10.80;99.90;;;;;;20649876;28;20279;-69
2021/11/17 07:41:37;;;;;;;0.20;0.10;;;10.90;99.90;;;;;;20612111;28;20290;-68
2021/11/17 07:51:43;;;;;;;0.20;0.20;;;11.10;99.90;;;;;;20609904;28;20391;-67
2021/11/17 08:01:49;;;;;;;3.90;3.70;;;11.40;99.90;;;;;;20625293;28;20231;-68
2021/11/17 08:11:55;;;;;;;0.20;0.10;;;11.70;99.90;;;;;;20597442;28;20219;-68
2021/11/17 08:22:02;;;;;;;0.20;0.10;;;12.10;99.90;;;;;;20616105;28;20278;-67
2021/11/17 08:32:08;;;;;;;0.20;0.10;;;12.50;99.90;;;;;;20633787;28;20204;-67
2021/11/17 08:42:14;;;;;;;2.47;2.27;;;12.70;99.90;;;;;;20631621;28;20231;-67
2021/11/17 08:52:19;;;;;;;0.20;0.10;;;12.70;99.90;;;;;;20618874;28;20764;-67
2021/11/17 09:02:23;;;;;;;0.20;0.10;;;12.60;99.90;;;;;;20624350;28;20234;-67
2021/11/17 09:12:28;;;;;;;0.20;0.10;;;12.70;99.90;;;;;;20621689;28;20310;-66
2021/11/17 09:22:32;;;;;;;0.20;0.10;;;12.90;99.90;;;;;;20619504;28;20507;-66
2021/11/17 09:32:37;;;;;;;0.20;0.10;;;12.90;99.90;;;;;;20626178;28;20227;-66
2021/11/17 09:42:41;;;;;;;0.20;0.10;;;13.20;99.90;;;;;;20585273;28;20279;-67
2021/11/17 09:53:02;;;;;;;0.20;0.10;;;13.80;99.90;;;;;;20615737;28;20595;-68
2021/11/17 10:03:09;;;;;;;0.20;0.10;;;13.60;99.90;;;;;;20658446;28;20323;-66
2021/11/17 10:13:27;;;;;;;0.20;0.10;;;14.10;99.90;;;;;;20633876;28;20225;-69
2021/11/17 10:23:33;;;;;;;0.30;0.30;;;14.60;99.90;;;;;;20649876;28;20683;-69
2021/11/17 10:34:05;;;;;;;0.20;0.10;;;14.90;99.90;;;;;;20656939;28;20219;-69
2021/11/17 10:44:10;;;;;;;0.20;0.20;;;15.50;99.90;;;;;;20602066;28;20196;-68
2021/11/17 10:54:19;;;;;;;0.20;0.07;;;16.10;99.90;;;;;;20612786;28;20575;-66
2021/11/17 11:04:25;;;;;;;0.20;0.10;;;16.00;99.90;;;;;;20591347;28;20219;-67
2021/11/17 11:14:34;;;;;;;0.20;0.10;;;16.00;99.90;;;;;;20620105;28;20314;-67
2021/11/17 11:24:40;;;;;;;0.20;0.10;;;16.80;99.90;;;;;;20652619;28;20306;-66
2021/11/17 11:35:09;;;;;;;0.20;0.10;;;16.90;99.90;;;;;;20636481;28;20223;-67
2021/11/17 11:45:38;;;;;;;0.20;0.00;;;17.50;99.90;;;;;;20584829;28;20728;-70
2021/11/17 11:56:01;;;;;;;0.20;0.10;;;17.90;99.90;;;;;;20606428;28;20220;-67
2021/11/17 12:06:10;;;;;;;0.20;0.17;;;17.90;99.90;;;;;;20568242;28;20247;-67
2021/11/17 12:16:21;;;;;;;0.20;0.10;;;18.40;99.90;;;;;;20600444;28;20311;-69
2021/11/17 12:26:26;;;;;;;0.20;0.00;;;19.00;99.90;;;;;;20569225;28;20207;-68
2021/11/17 12:36:32;;;;;;;0.20;0.00;;;20.00;99.90;;;;;;20585545;28;20270;-70
2021/11/17 12:46:41;;;;;;;0.20;0.10;;;19.10;99.90;;;;;;20585879;28;20227;-69
2021/11/17 12:56:54;;;;;;;0.20;0.10;;;19.50;99.90;;;;;;20603407;28;20223;-68
2021/11/17 13:07:01;;;;;;;0.20;0.10;;;20.00;99.90;;;;;;20634732;28;20298;-68
2021/11/17 13:17:09;;;;;;;0.20;0.00;;;18.90;99.90;;;;;;20627141;28;20220;-68
2021/11/17 13:27:25;;;;;;;0.20;0.10;;;19.20;99.90;;;;;;20594140;28;20572;-67
2021/11/17 13:37:38;;;;;;;0.20;0.00;;;19.50;99.90;;;;;;20551754;28;20637;-68
2021/11/17 13:47:43;;;;;;;0.20;0.10;;;20.00;99.90;;;;;;20579029;28;20206;-67
2021/11/17 13:57:48;;;;;;;0.20;0.00;;;21.60;99.90;;;;;;20652859;28;20230;-66
2021/11/17 14:07:54;;;;;;;0.20;0.00;;;21.70;99.90;;;;;;20656088;28;20310;-67
2021/11/17 14:17:58;;;;;;;0.20;0.00;;;22.30;99.90;;;;;;20655224;28;20219;-69
2021/11/17 14:28:07;;;;;;;0.20;0.10;;;21.80;99.90;;;;;;20653722;28;20648;-68
2021/11/17 14:38:16;;;;;;;0.20;0.10;;;21.10;99.90;;;;;;20651785;28;20230;-70
2021/11/17 14:48:22;;;;;;;0.20;0.10;;;19.20;99.90;;;;;;20635595;28;20231;-68
2021/11/17 14:58:26;;;;;;;0.20;0.00;;;19.40;99.90;;;;;;20652453;28;20235;-67
2021/11/17 15:08:31;;;;;;;0.20;0.10;;;20.70;99.90;;;;;;20652111;28;20255;-69
2021/11/17 15:18:35;;;;;;;0.20;0.20;;;20.10;99.90;;;;;;20651058;28;20631;-68
2021/11/17 15:28:43;;;;;;;0.20;0.10;;;17.90;99.90;;;;;;20651646;28;20569;-69
2021/11/17 15:38:48;;;;;;;0.20;0.10;;;17.20;99.90;;;;;;20632326;28;20230;-68
2021/11/17 15:48:54;;;;;;;0.20;0.10;;;16.60;99.90;;;;;;20653312;28;20522;-68
2021/11/17 15:58:58;;;;;;;0.20;0.10;;;15.90;99.90;;;;;;20665160;28;20648;-67
2021/11/17 16:09:04;;;;;;;0.20;0.10;;;15.70;99.90;;;;;;20662670;28;20226;-67
2021/11/17 16:19:08;;;;;;;0.20;0.10;;;15.20;99.90;;;;;;20664450;28;20314;-70
2021/11/17 16:29:14;;;;;;;0.20;0.10;;;15.10;99.90;;;;;;20642207;28;20218;-67
2021/11/17 16:39:18;;;;;;;0.20;0.10;;;14.70;99.90;;;;;;20601098;28;20629;-67
2021/11/17 16:49:24;;;;;;;0.20;0.10;;;14.40;99.90;;;;;;20662944;28;20703;-67
2021/11/17 16:59:27;;;;;;;0.20;0.10;;;14.00;99.90;;;;;;20660968;28;20223;-67
2021/11/17 17:09:32;;;;;;;0.20;0.10;;;13.50;99.90;;;;;;20653921;28;20275;-69
2021/11/17 17:19:40;;;;;;;0.20;0.10;;;12.80;99.90;;;;;;20581671;28;20330;-68
2021/11/17 17:29:45;;;;;;;0.20;0.20;;;12.70;99.90;;;;;;20613985;28;20294;-68
2021/11/17 17:39:51;;;;;;;0.20;0.10;;;12.60;99.90;;;;;;20648545;28;20656;-69
2021/11/17 17:49:56;;;;;;;0.20;0.10;;;12.50;99.90;;;;;;20659260;28;20204;-67
2021/11/17 18:00:00;;;;;;;0.20;0.10;;;12.40;99.90;;;;;;20658921;28;20362;-68
2021/11/17 18:10:08;;;;;;;0.20;0.10;;;12.40;99.90;;;;;;20657198;28;20283;-68
2021/11/17 18:20:14;;;;;;;0.20;0.10;;;12.40;99.90;;;;;;20657462;28;20509;-68
2021/11/17 18:30:21;;;;;;;0.20;0.10;;;12.30;99.90;;;;;;20657623;28;20257;-70
2021/11/17 18:40:28;;;;;;;0.20;0.17;;;12.20;99.90;;;;;;20656513;28;20630;-69
2021/11/17 18:50:36;;;;;;;0.20;0.10;;;12.00;99.90;;;;;;20628599;28;20196;-66
2021/11/17 19:00:46;;;;;;;2.47;2.37;;;12.00;99.90;;;;;;20579881;28;20239;-68
2021/11/17 19:10:54;;;;;;;0.20;0.10;;;11.70;99.90;;;;;;20632541;28;20196;-67
2021/11/17 19:20:59;;;;;;;0.20;0.10;;;11.70;99.90;;;;;;20565093;28;20302;-68
2021/11/17 19:31:06;;;;;;;0.20;0.10;;;11.50;99.90;;;;;;20643068;28;20226;-68
2021/11/17 19:41:16;;;;;;;0.20;0.10;;;11.50;99.90;;;;;;20575220;28;20231;-68
2021/11/17 19:51:20;;;;;;;0.20;0.10;;;11.20;99.90;;;;;;20588355;28;20551;-68
2021/11/17 20:01:25;;;;;;;0.20;0.10;;;11.20;99.90;;;;;;20605488;28;20786;-67
2021/11/17 20:11:29;;;;;;;0.20;0.10;;;11.10;99.90;;;;;;20607023;28;20549;-69
2021/11/17 20:21:35;;;;;;;0.20;0.10;;;11.10;99.90;;;;;;20641214;28;20233;-67
2021/11/17 20:31:40;;;;;;;0.20;0.10;;;10.90;99.90;;;;;;20619542;28;20196;-69
2021/11/17 20:41:47;;;;;;;0.20;0.10;;;10.90;99.90;;;;;;20602654;28;20231;-68
2021/11/17 20:51:51;;;;;;;0.20;0.10;;;10.80;99.90;;;;;;20622848;28;20200;-68
2021/11/17 21:01:58;;;;;;;0.20;0.10;;;10.70;99.90;;;;;;20585544;28;20260;-68
2021/11/17 21:12:05;;;;;;;0.20;0.10;;;10.60;99.90;;;;;;20598522;28;20199;-70
2021/11/17 21:22:10;;;;;;;0.20;0.03;;;10.70;99.90;;;;;;20664478;28;20314;-70
2021/11/17 21:32:14;;;;;;;2.43;2.30;;;10.80;99.90;;;;;;20664713;28;20192;-70
2021/11/17 21:42:19;;;;;;;0.20;0.10;;;11.00;99.90;;;;;;20614864;28;20224;-69
2021/11/17 22:02:42;;;;;;;0.20;0.10;;;11.20;99.90;;;;;;21079398;23;20560;-71
2021/11/17 22:12:47;;;;;;;0.40;0.40;;;11.30;99.90;;;;;;20732507;28;20230;-74
2021/11/17 22:22:52;;;;;;;0.20;0.10;;;11.30;99.90;;;;;;20740969;28;20639;-72
2021/11/17 22:32:56;;;;;;;0.63;0.63;;;11.30;99.90;;;;;;20689867;28;20202;-72
2021/11/17 22:43:03;;;;;;;2.67;2.57;;;11.30;99.90;;;;;;20804314;28;20657;-72
2021/11/17 22:53:07;;;;;;;0.20;0.10;;;11.30;99.90;;;;;;20822050;28;20659;-73
2021/11/17 23:03:15;;;;;;;0.20;0.10;;;11.30;99.90;;;;;;20820272;28;20240;-73
2021/11/17 23:13:19;;;;;;;0.20;0.10;;;11.40;99.90;;;;;;20781304;28;20285;-72
2021/11/17 23:23:28;;;;;;;0.20;0.10;;;11.30;99.90;;;;;;20739262;28;20252;-72
2021/11/17 23:33:34;;;;;;;0.20;0.10;;;11.30;99.90;;;;;;20740110;28;20222;-72
2021/11/17 23:43:40;;;;;;;0.20;0.10;;;11.40;99.90;;;;;;20801836;28;20226;-73
2021/11/17 23:53:45;;;;;;;0.20;0.10;;;11.50;99.90;;;;;;20827766;28;20205;-72
